createdAt,value
2023-01-13T00:00:32.942Z,9.40
2023-01-13T00:02:59.647Z,13.40
2023-01-13T00:05:26.663Z,8.40
2023-01-13T00:07:53.225Z,11.48
2023-01-13T00:10:19.774Z,14.20
2023-01-13T00:12:46.316Z,13.25
2023-01-13T00:15:13.346Z,13.82
2023-01-13T00:17:39.980Z,16.23
2023-01-13T00:20:07.439Z,13.75
2023-01-13T00:22:34.968Z,11.98
2023-01-13T00:25:01.871Z,14.27
2023-01-13T00:27:29.125Z,16.20
2023-01-13T00:29:55.599Z,18.73
2023-01-13T00:32:22.750Z,12.77
2023-01-13T00:34:49.230Z,13.02
2023-01-13T00:37:15.798Z,17.17
2023-01-13T00:39:42.330Z,15.63
2023-01-13T00:42:27.288Z,15.90
2023-01-13T00:44:53.792Z,13.77
2023-01-13T00:47:20.259Z,13.93
2023-01-13T00:49:46.718Z,13.80
2023-01-13T00:52:13.181Z,17.70
2023-01-13T00:54:39.939Z,15.45
2023-01-13T00:57:06.392Z,19.70
2023-01-13T00:59:32.855Z,18.00
2023-01-13T01:01:59.428Z,15.30
2023-01-13T01:04:25.975Z,16.92
2023-01-13T01:06:52.483Z,16.95
2023-01-13T01:09:19.004Z,15.82
2023-01-13T01:11:45.619Z,15.45
2023-01-13T01:14:13.269Z,21.75
2023-01-13T01:16:41.242Z,17.92
2023-01-13T01:19:08.075Z,15.68
2023-01-13T01:21:34.954Z,20.00
2023-01-13T01:24:03.523Z,15.20
2023-01-13T01:26:31.437Z,17.10
2023-01-13T01:28:58.482Z,17.92
2023-01-13T01:31:27.698Z,15.60
2023-01-13T01:33:55.334Z,15.82
2023-01-13T01:36:26.013Z,18.92
2023-01-13T01:38:52.763Z,17.10
2023-01-13T01:41:23.637Z,20.38
2023-01-13T01:44:02.793Z,17.37
2023-01-13T01:46:43.074Z,14.00
2023-01-13T01:49:32.744Z,21.15
2023-01-13T01:52:04.274Z,17.33
2023-01-13T01:54:39.256Z,17.08
2023-01-13T01:57:09.254Z,15.00
2023-01-13T01:59:36.415Z,16.58
2023-01-13T02:02:06.537Z,14.75
2023-01-13T02:04:43.121Z,19.30
2023-01-13T02:07:09.633Z,18.73
2023-01-13T02:09:36.640Z,21.17
2023-01-13T02:12:21.999Z,17.25
2023-01-13T02:14:48.512Z,17.98
2023-01-13T02:17:21.010Z,22.88
2023-01-13T02:20:11.964Z,19.17
2023-01-13T02:22:56.560Z,18.92
2023-01-13T02:25:52.172Z,23.02
2023-01-13T02:29:00.417Z,22.83
2023-01-13T02:31:42.089Z,20.40
2023-01-13T02:34:22.167Z,22.23
2023-01-13T02:36:59.832Z,21.05
2023-01-13T02:39:49.383Z,23.52
2023-01-13T02:42:45.165Z,20.20
2023-01-13T02:45:29.510Z,24.88
2023-01-13T02:47:58.478Z,28.50
2023-01-13T02:50:32.404Z,20.83
2023-01-13T02:53:05.169Z,20.17
2023-01-13T02:55:36.532Z,14.95
2023-01-13T02:58:08.013Z,16.77
2023-01-13T03:00:36.981Z,21.88
2023-01-13T03:03:03.735Z,19.25
2023-01-13T03:05:32.708Z,20.67
2023-01-13T03:08:35.998Z,18.80
2023-01-13T03:11:09.996Z,19.10
2023-01-13T03:13:45.488Z,19.17
2023-01-13T03:16:38.312Z,18.23
2023-01-13T03:19:15.387Z,19.00
2023-01-13T03:21:59.731Z,19.75
2023-01-13T03:24:42.942Z,21.55
2023-01-13T03:27:15.068Z,21.17
2023-01-13T03:30:00.600Z,21.00
2023-01-13T03:32:35.353Z,17.92
2023-01-13T03:35:10.650Z,17.40
2023-01-13T03:37:41.149Z,17.70
2023-01-13T03:40:14.309Z,12.05
2023-01-13T03:43:04.156Z,14.98
2023-01-13T03:45:34.113Z,13.05
2023-01-13T03:48:06.570Z,11.00
2023-01-13T03:50:39.801Z,9.80
2023-01-13T03:53:21.620Z,11.98
2023-01-13T03:55:55.349Z,9.80
2023-01-13T03:58:25.979Z,9.05
2023-01-13T04:01:05.188Z,5.80
2023-01-13T04:03:38.283Z,6.40
2023-01-13T04:06:15.863Z,5.00
2023-01-13T04:08:55.831Z,7.53
2023-01-13T04:11:34.146Z,4.72
2023-01-13T04:14:04.381Z,6.38
2023-01-13T04:16:32.495Z,6.63
2023-01-13T04:18:59.029Z,5.55
2023-01-13T04:21:26.001Z,6.68
2023-01-13T04:23:53.878Z,5.43
2023-01-13T04:26:20.567Z,3.47
2023-01-13T04:28:47.086Z,6.88
2023-01-13T04:31:13.601Z,5.47
2023-01-13T04:33:40.184Z,5.68
2023-01-13T04:36:07.232Z,4.65
2023-01-13T04:38:33.774Z,6.30
2023-01-13T04:41:00.326Z,4.65
2023-01-13T04:43:26.819Z,6.35
2023-01-13T04:45:53.425Z,8.38
2023-01-13T04:48:19.977Z,8.48
2023-01-13T04:50:46.478Z,5.32
2023-01-13T04:53:12.961Z,6.18
2023-01-13T04:55:39.521Z,7.30
2023-01-13T04:58:08.282Z,8.82
2023-01-13T05:00:35.107Z,7.13
2023-01-13T05:03:02.299Z,14.13
2023-01-13T05:05:30.440Z,9.35
2023-01-13T05:07:57.875Z,13.13
2023-01-13T05:10:24.730Z,9.40
2023-01-13T05:13:09.587Z,12.73
2023-01-13T05:15:54.628Z,17.05
2023-01-13T05:18:21.576Z,11.57
2023-01-13T05:20:48.093Z,15.93
2023-01-13T05:23:33.060Z,12.10
2023-01-13T05:25:59.588Z,12.82
2023-01-13T05:28:26.123Z,10.55
2023-01-13T05:30:52.747Z,8.18
2023-01-13T05:33:22.893Z,14.52
2023-01-13T05:35:49.680Z,10.45
2023-01-13T05:38:17.947Z,12.40
2023-01-13T05:41:03.712Z,11.98
2023-01-13T05:43:30.509Z,8.93
2023-01-13T05:46:01.058Z,15.32
2023-01-13T05:48:32.585Z,13.00
2023-01-13T05:50:59.663Z,11.90
2023-01-13T05:53:26.886Z,13.85
2023-01-13T05:55:53.999Z,10.20
2023-01-13T05:58:22.110Z,15.30
2023-01-13T06:00:49.225Z,11.65
2023-01-13T06:03:16.379Z,10.95
2023-01-13T06:05:43.660Z,12.43
2023-01-13T06:08:10.196Z,12.18
2023-01-13T06:10:37.077Z,9.23
2023-01-13T06:13:04.192Z,12.65
2023-01-13T06:15:31.306Z,8.93
2023-01-13T06:17:58.185Z,9.98
2023-01-13T06:20:25.117Z,11.30
2023-01-13T06:22:53.430Z,15.13
2023-01-13T06:25:29.062Z,12.00
2023-01-13T06:27:59.716Z,12.18
2023-01-13T06:30:35.198Z,12.77
2023-01-13T06:33:04.814Z,15.68
2023-01-13T06:35:35.265Z,12.48
2023-01-13T06:38:05.577Z,12.45
2023-01-13T06:40:32.056Z,14.70
2023-01-13T06:43:17.448Z,13.90
2023-01-13T06:45:48.479Z,11.63
2023-01-13T06:48:15.541Z,10.93
2023-01-13T06:50:42.273Z,12.73
2023-01-13T06:53:09.684Z,16.85
2023-01-13T06:55:36.777Z,12.90
2023-01-13T06:58:03.891Z,10.10
2023-01-13T07:00:32.312Z,16.55
2023-01-13T07:03:19.135Z,13.60
2023-01-13T07:05:52.746Z,13.43
2023-01-13T07:08:19.489Z,15.15
2023-01-13T07:10:46.137Z,13.07
2023-01-13T07:13:31.061Z,16.10
2023-01-13T07:16:00.346Z,11.73
2023-01-13T07:18:31.244Z,13.30
2023-01-13T07:21:00.374Z,12.32
2023-01-13T07:23:28.882Z,14.00
2023-01-13T07:25:56.764Z,10.02
2023-01-13T07:28:24.751Z,10.68
2023-01-13T07:30:51.678Z,12.70
2023-01-13T07:33:18.564Z,13.15
2023-01-13T07:35:45.738Z,13.13
2023-01-13T07:38:12.313Z,17.92
2023-01-13T07:40:40.630Z,13.65
2023-01-13T07:43:25.957Z,13.23
2023-01-13T07:45:58.574Z,12.75
2023-01-13T07:48:26.471Z,14.63
2023-01-13T07:50:53.417Z,15.95
2023-01-13T07:53:20.062Z,13.98
2023-01-13T07:55:46.528Z,12.10
2023-01-13T07:58:13.026Z,13.30
2023-01-13T08:00:39.769Z,13.48
2023-01-13T08:03:06.378Z,13.73
2023-01-13T08:05:35.409Z,14.65
2023-01-13T08:08:02.125Z,14.38
2023-01-13T08:10:28.650Z,15.80
2023-01-13T08:13:13.470Z,15.40
2023-01-13T08:15:40.043Z,15.30
2023-01-13T08:18:06.577Z,15.73
2023-01-13T08:20:33.136Z,16.23
2023-01-13T08:23:00.672Z,14.25
2023-01-13T08:25:29.059Z,17.80
2023-01-13T08:27:56.900Z,17.38
2023-01-13T08:30:23.480Z,14.70
2023-01-13T08:32:50.751Z,13.85
2023-01-13T08:35:17.876Z,18.33
2023-01-13T08:37:46.006Z,18.52
2023-01-13T08:40:14.291Z,15.55
2023-01-13T08:42:40.771Z,14.77
2023-01-13T08:45:08.926Z,17.10
2023-01-13T08:47:35.471Z,17.58
2023-01-13T08:50:02.016Z,15.18
2023-01-13T08:52:29.832Z,16.25
2023-01-13T08:54:56.392Z,18.30
2023-01-13T08:57:22.930Z,16.85
2023-01-13T08:59:49.418Z,19.25
2023-01-13T09:02:18.448Z,16.35
2023-01-13T09:04:45.663Z,16.15
2023-01-13T09:07:12.316Z,15.25
2023-01-13T09:09:38.919Z,19.63
2023-01-13T09:12:24.809Z,17.08
2023-01-13T09:14:51.868Z,19.45
2023-01-13T09:17:18.610Z,18.40
2023-01-13T09:19:45.108Z,16.08
2023-01-13T09:22:15.764Z,18.08
2023-01-13T09:24:42.276Z,17.25
2023-01-13T09:27:14.435Z,14.93
2023-01-13T09:29:41.440Z,14.15
2023-01-13T09:32:12.207Z,18.05
2023-01-13T09:34:57.407Z,18.90
2023-01-13T09:37:23.951Z,16.38
2023-01-13T09:39:50.513Z,14.52
2023-01-13T09:42:46.145Z,19.33
2023-01-13T09:45:14.813Z,16.42
2023-01-13T09:47:57.590Z,15.43
2023-01-13T09:50:24.103Z,16.63
2023-01-13T09:52:50.881Z,17.48
2023-01-13T09:55:24.369Z,17.08
2023-01-13T09:57:50.848Z,15.82
2023-01-13T10:00:47.221Z,14.40
2023-01-13T10:03:28.413Z,18.65
2023-01-13T10:06:06.827Z,18.50
2023-01-13T10:08:41.762Z,19.95
2023-01-13T10:11:36.243Z,21.90
2023-01-13T10:14:28.313Z,14.10
2023-01-13T10:16:57.650Z,19.75
2023-01-13T10:19:38.797Z,19.95
2023-01-13T10:22:23.370Z,17.03
2023-01-13T10:24:49.767Z,17.50
2023-01-13T10:27:33.055Z,21.85
2023-01-13T10:29:59.554Z,24.95
2023-01-13T10:32:26.064Z,19.33
2023-01-13T10:34:56.794Z,26.23
2023-01-13T10:37:26.388Z,21.98
2023-01-13T10:40:02.048Z,20.98
2023-01-13T10:42:28.778Z,24.15
2023-01-13T10:44:59.875Z,20.33
2023-01-13T10:47:35.333Z,16.52
2023-01-13T10:50:10.907Z,16.25
2023-01-13T10:52:54.789Z,17.75
2023-01-13T10:55:33.353Z,18.52
2023-01-13T10:58:20.716Z,20.05
2023-01-13T11:00:49.229Z,16.33
2023-01-13T11:03:17.226Z,21.02
2023-01-13T11:05:58.022Z,18.23
2023-01-13T11:08:27.695Z,17.77
2023-01-13T11:10:59.385Z,18.35
2023-01-13T11:14:02.382Z,18.13
2023-01-13T11:16:29.017Z,21.77
2023-01-13T11:19:02.524Z,17.70
2023-01-13T11:21:37.896Z,14.38
2023-01-13T11:24:15.425Z,17.65
2023-01-13T11:26:56.821Z,20.63
2023-01-13T11:29:41.338Z,18.48
2023-01-13T11:32:20.062Z,15.52
2023-01-13T11:34:52.654Z,23.38
2023-01-13T11:37:28.664Z,18.35
2023-01-13T11:40:05.781Z,16.88
2023-01-13T11:42:37.968Z,20.67
2023-01-13T11:45:34.813Z,17.48
2023-01-13T11:48:02.494Z,18.88
2023-01-13T11:50:34.912Z,17.55
2023-01-13T11:53:04.259Z,19.52
2023-01-13T11:56:01.955Z,15.65
2023-01-13T11:58:52.841Z,18.77
2023-01-13T12:01:37.635Z,17.13
2023-01-13T12:04:31.756Z,15.77
2023-01-13T12:07:22.907Z,15.52
2023-01-13T12:10:08.953Z,18.15
2023-01-13T12:12:47.561Z,12.55
2023-01-13T12:15:32.562Z,17.40
2023-01-13T12:18:05.081Z,16.17
2023-01-13T12:20:58.514Z,16.92
2023-01-13T12:23:28.852Z,14.45
2023-01-13T12:26:00.957Z,17.02
2023-01-13T12:28:40.224Z,18.45
2023-01-13T12:31:09.413Z,16.75
2023-01-13T12:34:02.139Z,20.35
2023-01-13T12:36:48.870Z,20.33
2023-01-13T12:39:40.044Z,17.65
2023-01-13T12:42:47.309Z,17.13
2023-01-13T12:45:13.787Z,14.10
2023-01-13T12:47:46.237Z,16.55
2023-01-13T12:50:28.019Z,15.48
2023-01-13T12:52:59.460Z,14.00
2023-01-13T12:55:35.303Z,13.27
2023-01-13T12:58:04.701Z,17.73
2023-01-13T13:00:40.233Z,12.70
2023-01-13T13:03:13.622Z,14.18
2023-01-13T13:06:09.657Z,12.20
2023-01-13T13:09:13.261Z,14.40
2023-01-13T13:12:02.935Z,9.52
2023-01-13T13:14:41.887Z,14.07
2023-01-13T13:17:41.304Z,14.32
2023-01-13T13:20:46.110Z,13.25
2023-01-13T13:23:37.931Z,15.52
2023-01-13T13:26:26.208Z,15.23
2023-01-13T13:29:08.673Z,14.65
2023-01-13T13:31:44.190Z,15.43
2023-01-13T13:34:10.646Z,13.65
2023-01-13T13:36:55.463Z,15.52
2023-01-13T13:39:44.048Z,14.20
2023-01-13T13:42:37.487Z,12.10
2023-01-13T13:45:34.549Z,13.80
2023-01-13T13:48:20.943Z,15.65
2023-01-13T13:50:49.573Z,14.93
2023-01-13T13:53:19.026Z,13.95
2023-01-13T13:55:57.407Z,14.07
2023-01-13T13:58:26.302Z,14.85
2023-01-13T14:00:54.680Z,14.98
2023-01-13T14:03:24.973Z,15.73
2023-01-13T14:06:03.314Z,12.68
2023-01-13T14:08:39.653Z,10.07
2023-01-13T14:11:30.761Z,13.40
2023-01-13T14:14:06.613Z,14.48
2023-01-13T14:16:37.944Z,10.23
2023-01-13T14:19:04.553Z,17.02
2023-01-13T14:21:31.517Z,14.75
2023-01-13T14:24:13.999Z,12.38
2023-01-13T14:26:40.659Z,17.38
2023-01-13T14:29:07.474Z,15.00
2023-01-13T14:31:34.845Z,15.10
2023-01-13T14:34:03.512Z,14.00
2023-01-13T14:36:51.232Z,11.77
2023-01-13T14:39:17.805Z,17.52
2023-01-13T14:41:48.000Z,11.82
2023-01-13T14:44:31.526Z,14.30
2023-01-13T14:47:00.751Z,16.00
2023-01-13T14:50:00.935Z,14.15
2023-01-13T14:52:30.056Z,13.23
2023-01-13T14:55:05.381Z,10.32
2023-01-13T14:57:33.768Z,15.98
2023-01-13T15:00:15.463Z,15.95
2023-01-13T15:02:48.003Z,13.07
2023-01-13T15:05:17.730Z,14.35
2023-01-13T15:08:09.871Z,15.77
2023-01-13T15:13:07.085Z,13.65
2023-01-13T15:15:39.175Z,14.00
2023-01-13T15:18:13.113Z,14.70
2023-01-13T15:20:40.927Z,13.80
2023-01-13T15:23:07.493Z,14.10
2023-01-13T15:25:36.494Z,14.75
2023-01-13T15:28:04.560Z,15.18
2023-01-13T15:30:31.552Z,15.25
2023-01-13T15:32:59.167Z,14.68
2023-01-13T15:35:28.267Z,13.90
2023-01-13T15:37:56.304Z,13.88
2023-01-13T15:40:26.334Z,20.27
2023-01-13T15:43:11.151Z,15.13
2023-01-13T15:45:56.528Z,15.23
2023-01-13T15:48:24.710Z,13.60
2023-01-13T15:50:51.439Z,16.15
2023-01-13T15:53:18.141Z,18.35
2023-01-13T15:55:49.041Z,13.63
2023-01-13T15:58:28.408Z,19.60
2023-01-13T16:00:55.604Z,13.68
2023-01-13T16:03:22.295Z,15.68
2023-01-13T16:05:49.191Z,15.98
2023-01-13T16:08:21.659Z,12.35
2023-01-13T16:10:49.583Z,13.05
2023-01-13T16:13:16.997Z,13.43
2023-01-13T16:15:46.911Z,12.32
2023-01-13T16:18:19.303Z,13.95
2023-01-13T16:20:46.620Z,16.42
2023-01-13T16:23:13.524Z,9.63
2023-01-13T16:25:40.674Z,10.90
2023-01-13T16:28:07.231Z,14.43
2023-01-13T16:30:36.121Z,15.95
2023-01-13T16:33:03.355Z,12.32
2023-01-13T16:35:31.923Z,12.55
2023-01-13T16:37:59.781Z,14.48
2023-01-13T16:40:31.181Z,15.45
2023-01-13T16:42:57.977Z,13.10
2023-01-13T16:45:25.035Z,14.27
2023-01-13T16:47:51.601Z,12.43
2023-01-13T16:50:40.727Z,13.95
2023-01-13T16:53:11.235Z,13.02
2023-01-13T16:55:38.832Z,15.13
2023-01-13T16:58:06.237Z,15.02
2023-01-13T17:00:32.935Z,13.27
2023-01-13T17:03:01.843Z,13.60
2023-01-13T17:05:28.651Z,12.73
2023-01-13T17:07:55.360Z,13.02
2023-01-13T17:10:24.572Z,13.32
2023-01-13T17:12:51.470Z,14.35
2023-01-13T17:15:20.099Z,13.88
2023-01-13T17:17:51.735Z,12.15
2023-01-13T17:20:19.143Z,13.25
2023-01-13T17:22:49.792Z,14.10
2023-01-13T17:25:21.444Z,13.65
2023-01-13T17:27:47.913Z,12.68
2023-01-13T17:30:14.621Z,11.73
2023-01-13T17:32:41.741Z,11.50
2023-01-13T17:35:08.871Z,13.32
2023-01-13T17:37:35.627Z,12.02
2023-01-13T17:40:02.217Z,11.98
2023-01-13T17:42:29.575Z,16.00
2023-01-13T17:44:56.355Z,14.75
2023-01-13T17:47:22.861Z,12.80
2023-01-13T17:49:49.452Z,15.30
2023-01-13T17:52:16.012Z,11.95
2023-01-13T17:54:43.709Z,12.95
2023-01-13T17:57:10.721Z,13.77
2023-01-13T17:59:37.226Z,16.15
2023-01-13T18:02:04.723Z,13.30
2023-01-13T18:04:31.473Z,12.90
2023-01-13T18:06:58.083Z,11.95
2023-01-13T18:09:25.788Z,11.02
2023-01-13T18:11:52.455Z,13.75
2023-01-13T18:14:22.236Z,12.90
2023-01-13T18:16:48.798Z,14.25
2023-01-13T18:19:33.816Z,11.13
2023-01-13T18:22:18.659Z,14.45
2023-01-13T18:25:04.151Z,12.35
2023-01-13T18:27:35.864Z,11.85
2023-01-13T18:30:04.519Z,11.98
2023-01-13T18:32:33.236Z,14.77
2023-01-13T18:35:06.635Z,16.85
2023-01-13T18:37:35.950Z,14.10
2023-01-13T18:40:03.408Z,16.40
2023-01-13T18:42:48.454Z,16.25
2023-01-13T18:45:14.992Z,15.25
2023-01-13T18:47:42.238Z,13.85
2023-01-13T18:50:12.161Z,12.65
2023-01-13T18:52:38.659Z,11.77
2023-01-13T18:55:05.448Z,12.88
2023-01-13T18:57:32.080Z,6.32
2023-01-13T18:59:58.610Z,9.52
2023-01-13T19:02:28.268Z,8.35
2023-01-13T19:04:54.967Z,7.78
2023-01-13T19:07:28.178Z,8.68
2023-01-13T19:09:55.888Z,11.88
2023-01-13T19:12:26.316Z,10.25
2023-01-13T19:14:56.931Z,12.75
2023-01-13T19:17:25.138Z,10.40
2023-01-13T19:19:54.819Z,11.00
2023-01-13T19:22:30.306Z,14.63
2023-01-13T19:24:57.570Z,12.57
2023-01-13T19:27:24.590Z,10.10
2023-01-13T19:29:53.475Z,13.98
2023-01-13T19:32:23.185Z,13.15
2023-01-13T19:34:51.026Z,9.55
2023-01-13T19:37:19.058Z,11.80
2023-01-13T19:39:45.651Z,14.68
2023-01-13T19:42:31.184Z,11.57
2023-01-13T19:45:16.712Z,10.82
2023-01-13T19:47:45.337Z,8.98
2023-01-13T19:50:13.430Z,11.30
2023-01-13T19:52:40.087Z,13.02
2023-01-13T19:55:07.095Z,13.43
2023-01-13T19:57:33.617Z,12.07
2023-01-13T20:00:00.232Z,13.70
2023-01-13T20:02:31.461Z,11.25
2023-01-13T20:05:00.829Z,10.88
2023-01-13T20:07:31.467Z,11.38
2023-01-13T20:09:58.052Z,11.95
2023-01-13T20:12:25.969Z,14.73
2023-01-13T20:14:52.623Z,14.20
2023-01-13T20:17:21.048Z,14.95
2023-01-13T20:19:47.509Z,15.00
2023-01-13T20:22:14.116Z,15.50
2023-01-13T20:24:40.674Z,14.50
2023-01-13T20:27:07.433Z,16.77
2023-01-13T20:29:33.999Z,10.52
2023-01-13T20:32:00.688Z,14.40
2023-01-13T20:34:28.522Z,14.38
2023-01-13T20:36:55.243Z,10.60
2023-01-13T20:39:27.367Z,12.88
2023-01-13T20:42:13.076Z,14.32
2023-01-13T20:44:39.681Z,13.38
2023-01-13T20:47:07.070Z,13.88
2023-01-13T20:49:35.907Z,14.43
2023-01-13T20:52:05.636Z,16.55
2023-01-13T20:54:32.118Z,14.40
2023-01-13T20:57:00.335Z,12.90
2023-01-13T20:59:26.818Z,14.52
2023-01-13T21:01:53.305Z,15.50
2023-01-13T21:04:19.837Z,12.43
2023-01-13T21:06:48.103Z,10.75
2023-01-13T21:09:14.632Z,9.65
2023-01-13T21:11:59.529Z,15.60
2023-01-13T21:14:45.855Z,12.25
2023-01-13T21:17:32.725Z,15.40
2023-01-13T21:19:59.631Z,14.70
2023-01-13T21:22:26.689Z,11.80
2023-01-13T21:24:53.333Z,12.60
2023-01-13T21:27:20.494Z,11.43
2023-01-13T21:29:46.998Z,12.73
2023-01-13T21:32:13.532Z,11.90
2023-01-13T21:34:40.071Z,12.00
2023-01-13T21:37:06.636Z,12.02
2023-01-13T21:39:33.247Z,12.32
2023-01-13T21:42:18.065Z,13.00
2023-01-13T21:45:03.337Z,11.63
2023-01-13T21:47:48.416Z,14.18
2023-01-13T21:50:20.621Z,11.15
2023-01-13T21:52:48.560Z,11.43
2023-01-13T21:55:26.934Z,12.77
2023-01-13T21:57:59.303Z,13.38
2023-01-13T22:00:28.546Z,17.38
2023-01-13T22:02:55.517Z,11.35
2023-01-13T22:05:24.298Z,16.17
2023-01-13T22:07:51.185Z,14.68
2023-01-13T22:10:24.086Z,13.73
2023-01-13T22:12:54.971Z,15.70
2023-01-13T22:15:26.049Z,12.40
2023-01-13T22:17:54.185Z,15.95
2023-01-13T22:20:21.503Z,13.55
2023-01-13T22:22:48.269Z,12.35
2023-01-13T22:25:16.309Z,14.05
2023-01-13T22:27:44.575Z,14.85
2023-01-13T22:30:17.632Z,17.90
2023-01-13T22:32:45.247Z,11.15
2023-01-13T22:35:12.898Z,13.13
2023-01-13T22:37:39.405Z,16.52
2023-01-13T22:40:08.346Z,14.63
2023-01-13T22:42:39.312Z,13.57
2023-01-13T22:45:07.838Z,14.63
2023-01-13T22:47:34.592Z,12.00
2023-01-13T22:50:01.114Z,14.02
2023-01-13T22:52:28.482Z,14.50
2023-01-13T22:54:55.018Z,16.77
2023-01-13T22:57:21.961Z,13.18
2023-01-13T22:59:50.326Z,11.57
2023-01-13T23:02:16.850Z,10.93
2023-01-13T23:04:43.390Z,16.73
2023-01-13T23:07:09.927Z,15.88
2023-01-13T23:09:36.411Z,12.27
2023-01-13T23:12:02.979Z,15.63
2023-01-13T23:14:29.486Z,13.05
2023-01-13T23:16:56.154Z,12.48
2023-01-13T23:19:22.836Z,13.02
2023-01-13T23:21:49.383Z,13.32
2023-01-13T23:24:15.918Z,10.82
2023-01-13T23:26:42.436Z,12.82
2023-01-13T23:29:12.061Z,17.55
2023-01-13T23:31:39.264Z,13.07
2023-01-13T23:34:05.805Z,15.85
2023-01-13T23:36:32.423Z,17.70
2023-01-13T23:38:59.381Z,13.18
2023-01-13T23:41:26.648Z,11.48
2023-01-13T23:43:56.013Z,12.40
2023-01-13T23:46:23.410Z,11.73
2023-01-13T23:48:50.807Z,18.30
2023-01-13T23:51:18.017Z,15.55
2023-01-13T23:53:46.980Z,18.20
2023-01-13T23:56:16.611Z,15.80
2023-01-13T23:58:43.945Z,13.75
